createdAt,value
2023-03-05T00:01:34.918Z,3.00
2023-03-05T00:04:05.861Z,2.90
2023-03-05T00:06:34.229Z,3.40
2023-03-05T00:09:02.391Z,3.00
2023-03-05T00:11:31.884Z,3.60
2023-03-05T00:14:04.125Z,3.50
2023-03-05T00:16:32.355Z,3.10
2023-03-05T00:19:01.617Z,3.00
2023-03-05T00:21:34.572Z,3.10
2023-03-05T00:24:06.199Z,3.70
2023-03-05T00:26:37.521Z,3.60
2023-03-05T00:29:07.711Z,3.50
2023-03-05T00:31:36.820Z,3.30
2023-03-05T00:34:13.003Z,4.20
2023-03-05T00:36:43.940Z,4.60
2023-03-05T00:39:13.672Z,4.90
2023-03-05T00:41:41.418Z,5.40
2023-03-05T00:44:09.598Z,6.00
2023-03-05T00:46:38.618Z,5.90
2023-03-05T00:49:07.267Z,5.50
2023-03-05T00:51:35.033Z,5.90
2023-03-05T00:54:03.868Z,6.40
2023-03-05T00:56:31.556Z,5.20
2023-03-05T00:58:59.559Z,6.00
2023-03-05T01:01:28.375Z,6.50
2023-03-05T01:04:01.132Z,6.60
2023-03-05T01:06:29.593Z,6.30
2023-03-05T01:08:57.688Z,6.00
2023-03-05T01:11:25.625Z,5.50
2023-03-05T01:13:53.327Z,5.40
2023-03-05T01:16:21.161Z,5.40
2023-03-05T01:18:48.881Z,5.20
2023-03-05T01:21:16.565Z,5.60
2023-03-05T01:23:44.287Z,5.60
2023-03-05T01:26:11.954Z,5.80
2023-03-05T01:28:40.473Z,4.60
2023-03-05T01:31:10.704Z,3.70
2023-03-05T01:33:39.201Z,3.70
2023-03-05T01:36:16.932Z,3.60
2023-03-05T01:38:47.521Z,3.60
2023-03-05T01:41:16.615Z,3.00
2023-03-05T01:43:47.461Z,4.10
2023-03-05T01:46:37.361Z,3.50
2023-03-05T01:49:21.486Z,3.30
2023-03-05T01:52:01.466Z,3.50
2023-03-05T01:54:58.173Z,3.40
2023-03-05T01:57:39.522Z,3.70
2023-03-05T02:00:16.762Z,5.20
2023-03-05T02:02:48.890Z,5.30
2023-03-05T02:05:41.220Z,5.10
2023-03-05T02:08:13.820Z,4.90
2023-03-05T02:10:47.923Z,4.80
2023-03-05T02:13:22.654Z,4.40
2023-03-05T02:15:51.926Z,3.60
2023-03-05T02:18:21.404Z,4.00
2023-03-05T02:20:56.599Z,3.60
2023-03-05T02:23:29.345Z,3.20
2023-03-05T02:25:57.281Z,3.70
2023-03-05T02:28:33.313Z,3.10
2023-03-05T02:31:01.276Z,3.80
2023-03-05T02:33:29.120Z,4.60
2023-03-05T02:35:56.800Z,3.90
2023-03-05T02:38:24.513Z,4.00
2023-03-05T02:40:52.110Z,4.40
2023-03-05T02:43:20.116Z,5.00
2023-03-05T02:45:48.004Z,4.30
2023-03-05T02:48:15.787Z,4.10
2023-03-05T02:50:44.980Z,5.20
2023-03-05T02:53:12.709Z,4.50
2023-03-05T02:55:40.397Z,3.70
2023-03-05T02:58:08.164Z,3.00
2023-03-05T03:00:35.926Z,3.60
2023-03-05T03:03:03.966Z,3.80
2023-03-05T03:05:31.822Z,3.60
2023-03-05T03:07:59.528Z,3.30
2023-03-05T03:10:27.306Z,3.70
2023-03-05T03:12:55.065Z,3.30
2023-03-05T03:15:23.110Z,3.50
2023-03-05T03:17:50.902Z,3.00
2023-03-05T03:20:20.578Z,2.90
2023-03-05T03:22:48.487Z,1.90
2023-03-05T03:25:21.758Z,2.80
2023-03-05T03:27:50.034Z,3.50
2023-03-05T03:30:18.121Z,2.50
2023-03-05T03:32:47.813Z,1.90
2023-03-05T03:35:15.514Z,2.10
2023-03-05T03:37:43.297Z,1.50
2023-03-05T03:40:12.223Z,2.40
2023-03-05T03:42:40.072Z,5.60
2023-03-05T03:45:08.734Z,4.10
2023-03-05T03:47:36.509Z,3.50
2023-03-05T03:50:05.509Z,2.70
2023-03-05T03:52:33.269Z,3.00
2023-03-05T03:55:01.602Z,3.70
2023-03-05T03:57:31.162Z,4.20
2023-03-05T03:59:59.923Z,4.30
2023-03-05T04:02:27.911Z,2.40
2023-03-05T04:04:55.737Z,2.40
2023-03-05T04:07:23.679Z,1.20
2023-03-05T04:09:51.910Z,1.50
2023-03-05T04:12:19.877Z,1.00
2023-03-05T04:14:48.991Z,1.50
2023-03-05T04:17:17.280Z,1.30
2023-03-05T04:19:45.603Z,1.20
2023-03-05T04:22:17.108Z,2.20
2023-03-05T04:24:45.020Z,1.30
2023-03-05T04:27:12.917Z,1.30
2023-03-05T04:29:40.654Z,1.20
2023-03-05T04:32:08.526Z,1.20
2023-03-05T04:34:38.083Z,1.30
2023-03-05T04:37:05.967Z,1.00
2023-03-05T04:39:33.759Z,1.10
2023-03-05T04:42:01.567Z,1.00
2023-03-05T04:44:29.431Z,1.20
2023-03-05T04:46:57.134Z,1.80
2023-03-05T04:49:24.960Z,2.80
2023-03-05T04:51:52.682Z,2.60
2023-03-05T04:54:20.326Z,2.80
2023-03-05T04:56:48.005Z,3.30
2023-03-05T04:59:16.127Z,2.00
2023-03-05T05:01:43.824Z,2.20
2023-03-05T05:04:11.845Z,2.50
2023-03-05T05:06:39.578Z,2.80
2023-03-05T05:09:07.249Z,2.80
2023-03-05T05:11:34.887Z,3.00
2023-03-05T05:14:02.621Z,3.90
2023-03-05T05:16:30.417Z,5.30
2023-03-05T05:18:58.417Z,4.20
2023-03-05T05:21:26.153Z,4.50
2023-03-05T05:23:53.850Z,7.10
2023-03-05T05:26:21.696Z,4.80
2023-03-05T05:28:49.489Z,5.30
2023-03-05T05:31:18.161Z,4.50
2023-03-05T05:33:49.577Z,4.30
2023-03-05T05:36:19.391Z,5.20
2023-03-05T05:38:47.134Z,4.60
2023-03-05T05:41:17.920Z,3.20
2023-03-05T05:43:46.243Z,2.60
2023-03-05T05:46:18.671Z,3.40
2023-03-05T05:48:46.775Z,2.40
2023-03-05T05:51:22.050Z,2.10
2023-03-05T05:53:50.542Z,2.50
2023-03-05T05:56:19.525Z,2.00
2023-03-05T05:58:49.063Z,2.50
2023-03-05T06:01:25.006Z,2.90
2023-03-05T06:03:52.737Z,3.00
2023-03-05T06:06:23.881Z,3.10
2023-03-05T06:08:52.791Z,3.90
2023-03-05T06:11:21.158Z,5.10
2023-03-05T06:13:49.759Z,4.50
2023-03-05T06:16:23.833Z,3.10
2023-03-05T06:18:52.890Z,2.70
2023-03-05T06:21:22.687Z,3.00
2023-03-05T06:23:51.418Z,3.10
2023-03-05T06:26:22.126Z,2.60
2023-03-05T06:28:50.690Z,2.70
2023-03-05T06:31:27.439Z,3.10
2023-03-05T06:33:58.464Z,2.80
2023-03-05T06:36:26.309Z,2.80
2023-03-05T06:38:55.212Z,2.50
2023-03-05T06:41:28.981Z,2.50
2023-03-05T06:43:57.386Z,2.70
2023-03-05T06:46:32.203Z,2.40
2023-03-05T06:49:02.726Z,2.90
2023-03-05T06:51:37.713Z,2.80
2023-03-05T06:54:09.603Z,2.90
2023-03-05T06:56:40.531Z,2.30
2023-03-05T06:59:10.397Z,2.80
2023-03-05T07:01:38.463Z,3.40
2023-03-05T07:04:06.909Z,2.90
2023-03-05T07:06:38.434Z,2.60
2023-03-05T07:09:10.364Z,2.10
2023-03-05T07:11:38.061Z,2.50
2023-03-05T07:14:05.823Z,2.20
2023-03-05T07:16:34.764Z,2.10
2023-03-05T07:19:07.418Z,2.30
2023-03-05T07:21:39.102Z,2.60
2023-03-05T07:24:09.078Z,3.50
2023-03-05T07:26:36.964Z,3.90
2023-03-05T07:29:04.716Z,3.60
2023-03-05T07:31:32.713Z,3.10
2023-03-05T07:34:03.286Z,3.50
2023-03-05T07:36:31.637Z,3.50
2023-03-05T07:38:59.514Z,4.10
2023-03-05T07:41:27.227Z,4.00
2023-03-05T07:43:55.765Z,4.00
2023-03-05T07:46:30.381Z,4.20
2023-03-05T07:48:59.058Z,6.10
2023-03-05T07:51:28.170Z,6.10
2023-03-05T07:53:58.663Z,5.50
2023-03-05T07:56:35.250Z,5.60
2023-03-05T07:59:07.891Z,5.10
2023-03-05T08:01:36.944Z,4.70
2023-03-05T08:04:06.974Z,3.90
2023-03-05T08:06:34.785Z,4.00
2023-03-05T08:09:02.528Z,4.80
2023-03-05T08:11:30.317Z,5.30
2023-03-05T08:13:59.485Z,4.10
2023-03-05T08:16:27.639Z,3.90
2023-03-05T08:18:57.510Z,4.30
2023-03-05T08:21:33.827Z,4.00
2023-03-05T08:24:08.610Z,4.60
2023-03-05T08:26:38.561Z,3.80
2023-03-05T08:29:08.834Z,5.80
2023-03-05T08:31:38.050Z,6.70
2023-03-05T08:34:06.567Z,6.60
2023-03-05T08:36:34.365Z,6.80
2023-03-05T08:39:02.103Z,7.80
2023-03-05T08:41:29.761Z,7.70
2023-03-05T08:43:57.593Z,7.40
2023-03-05T08:46:25.670Z,5.70
2023-03-05T08:48:53.613Z,7.70
2023-03-05T08:51:27.938Z,9.70
2023-03-05T08:53:58.658Z,8.50
2023-03-05T08:56:28.504Z,9.90
2023-03-05T08:58:56.635Z,10.40
2023-03-05T09:01:24.819Z,9.30
2023-03-05T09:03:52.929Z,11.20
2023-03-05T09:06:20.892Z,13.20
2023-03-05T09:08:48.654Z,13.50
2023-03-05T09:11:16.589Z,12.20
2023-03-05T09:13:44.468Z,11.50
2023-03-05T09:16:16.927Z,9.80
2023-03-05T09:18:45.542Z,11.30
2023-03-05T09:21:17.400Z,9.70
2023-03-05T09:23:47.148Z,7.20
2023-03-05T09:26:19.180Z,10.60
2023-03-05T09:28:48.467Z,12.70
2023-03-05T09:31:17.158Z,11.40
2023-03-05T09:33:44.945Z,10.00
2023-03-05T09:36:26.505Z,10.20
2023-03-05T09:38:54.447Z,9.10
2023-03-05T09:41:30.347Z,9.20
2023-03-05T09:44:16.218Z,9.80
2023-03-05T09:47:00.144Z,7.30
2023-03-05T09:50:00.046Z,8.10
2023-03-05T09:52:55.306Z,6.10
2023-03-05T09:55:34.148Z,11.80
2023-03-05T09:58:12.915Z,14.80
2023-03-05T10:01:09.475Z,11.20
2023-03-05T10:04:00.430Z,13.20
2023-03-05T10:06:36.756Z,9.40
2023-03-05T10:09:16.337Z,10.40
2023-03-05T10:12:05.765Z,10.70
2023-03-05T10:14:38.450Z,10.60
2023-03-05T10:17:44.275Z,6.20
2023-03-05T10:20:33.043Z,7.10
2023-03-05T10:23:49.038Z,7.50
2023-03-05T10:26:31.843Z,8.90
2023-03-05T10:29:23.144Z,11.10
2023-03-05T10:32:07.266Z,7.80
2023-03-05T10:35:07.804Z,7.10
2023-03-05T10:38:00.128Z,5.30
2023-03-05T10:40:52.296Z,6.40
2023-03-05T10:43:31.053Z,5.30
2023-03-05T10:46:03.587Z,5.70
2023-03-05T10:48:49.353Z,4.40
2023-03-05T10:51:25.624Z,6.30
2023-03-05T10:54:02.201Z,9.30
2023-03-05T10:56:31.846Z,9.20
2023-03-05T10:58:59.582Z,9.40
2023-03-05T11:01:31.422Z,6.20
2023-03-05T11:04:37.914Z,4.20
2023-03-05T11:07:16.117Z,6.10
2023-03-05T11:10:15.262Z,8.70
2023-03-05T11:12:44.352Z,8.10
2023-03-05T11:15:12.028Z,7.90
2023-03-05T11:18:03.824Z,9.00
2023-03-05T11:20:37.285Z,13.00
2023-03-05T11:23:26.206Z,10.00
2023-03-05T11:26:14.859Z,22.50
2023-03-05T11:28:48.368Z,12.10
2023-03-05T11:31:16.157Z,6.70
2023-03-05T11:34:08.500Z,7.00
2023-03-05T11:36:40.007Z,4.70
2023-03-05T11:39:07.846Z,3.90
2023-03-05T11:42:00.174Z,3.50
2023-03-05T11:44:56.876Z,4.50
2023-03-05T11:47:49.402Z,4.40
2023-03-05T11:50:23.897Z,3.10
2023-03-05T11:52:58.019Z,4.10
2023-03-05T11:55:40.091Z,4.90
2023-03-05T11:58:31.441Z,4.90
2023-03-05T12:01:04.074Z,3.70
2023-03-05T12:03:37.130Z,3.70
2023-03-05T12:06:29.307Z,4.00
2023-03-05T12:09:07.708Z,3.90
2023-03-05T12:11:36.924Z,3.80
2023-03-05T12:14:26.850Z,4.20
2023-03-05T12:17:23.357Z,4.80
2023-03-05T12:20:09.142Z,9.90
2023-03-05T12:22:40.902Z,7.50
2023-03-05T12:25:32.482Z,7.80
2023-03-05T12:28:01.210Z,7.70
2023-03-05T12:30:35.264Z,7.20
2023-03-05T12:33:05.937Z,5.50
2023-03-05T12:35:39.971Z,5.60
2023-03-05T12:38:33.290Z,8.40
2023-03-05T12:41:22.591Z,6.70
2023-03-05T12:44:05.226Z,7.30
2023-03-05T12:46:44.089Z,6.80
2023-03-05T12:49:21.255Z,6.00
2023-03-05T12:51:51.618Z,7.70
2023-03-05T12:54:30.883Z,10.40
2023-03-05T12:57:04.521Z,13.70
2023-03-05T12:59:46.492Z,13.30
2023-03-05T13:02:27.072Z,10.50
2023-03-05T13:05:00.612Z,6.10
2023-03-05T13:07:28.557Z,8.40
2023-03-05T13:09:59.660Z,5.20
2023-03-05T13:12:30.160Z,5.80
2023-03-05T13:15:04.430Z,5.30
2023-03-05T13:17:44.424Z,3.20
2023-03-05T13:20:34.227Z,3.90
2023-03-05T13:23:15.394Z,3.60
2023-03-05T13:25:44.636Z,3.80
2023-03-05T13:28:15.766Z,8.50
2023-03-05T13:31:19.213Z,6.50
2023-03-05T13:33:59.852Z,3.60
2023-03-05T13:36:28.228Z,4.50
2023-03-05T13:38:56.257Z,4.30
2023-03-05T13:41:29.597Z,5.20
2023-03-05T13:44:02.822Z,6.00
2023-03-05T13:46:34.358Z,5.50
2023-03-05T13:49:18.037Z,9.50
2023-03-05T13:51:55.789Z,10.10
2023-03-05T13:54:26.813Z,8.10
2023-03-05T13:57:05.855Z,9.10
2023-03-05T13:59:39.105Z,9.50
2023-03-05T14:02:34.406Z,8.80
2023-03-05T14:05:15.297Z,7.30
2023-03-05T14:07:48.359Z,7.30
2023-03-05T14:10:36.049Z,6.10
2023-03-05T14:13:13.565Z,4.90
2023-03-05T14:15:43.503Z,5.80
2023-03-05T14:18:11.379Z,9.50
2023-03-05T14:20:59.480Z,13.40
2023-03-05T14:23:47.726Z,10.50
2023-03-05T14:26:31.292Z,10.10
2023-03-05T14:29:11.335Z,11.50
2023-03-05T14:32:02.906Z,9.60
2023-03-05T14:34:42.213Z,11.30
2023-03-05T14:37:29.304Z,11.40
2023-03-05T14:40:21.601Z,10.00
2023-03-05T14:42:58.803Z,12.30
2023-03-05T14:45:43.708Z,16.20
2023-03-05T14:48:16.030Z,15.20
2023-03-05T14:50:53.245Z,14.00
2023-03-05T14:53:27.176Z,14.30
2023-03-05T14:55:56.928Z,13.30
2023-03-05T14:58:32.237Z,10.40
2023-03-05T15:01:00.210Z,12.50
2023-03-05T15:03:28.174Z,16.40
2023-03-05T15:05:58.619Z,15.90
2023-03-05T15:08:31.172Z,11.40
2023-03-05T15:11:00.967Z,8.40
2023-03-05T15:13:28.749Z,8.50
2023-03-05T15:15:56.610Z,12.90
2023-03-05T15:18:24.406Z,16.80
2023-03-05T15:20:53.139Z,6.10
2023-03-05T15:23:21.377Z,12.70
2023-03-05T15:25:49.826Z,11.00
2023-03-05T15:28:17.700Z,11.30
2023-03-05T15:30:47.623Z,9.60
2023-03-05T15:33:17.873Z,14.60
2023-03-05T15:35:45.991Z,12.70
2023-03-05T15:38:15.307Z,10.50
2023-03-05T15:40:44.191Z,11.70
2023-03-05T15:43:11.914Z,9.50
2023-03-05T15:45:40.224Z,14.40
2023-03-05T15:48:08.461Z,14.80
2023-03-05T15:50:36.291Z,9.60
2023-03-05T15:53:04.504Z,11.00
2023-03-05T15:55:32.205Z,9.00
2023-03-05T15:57:59.852Z,7.30
2023-03-05T16:00:31.166Z,7.80
2023-03-05T16:02:59.168Z,11.30
2023-03-05T16:05:27.173Z,7.60
2023-03-05T16:07:56.124Z,11.00
2023-03-05T16:10:28.216Z,9.10
2023-03-05T16:13:12.324Z,6.60
2023-03-05T16:15:41.820Z,9.00
2023-03-05T16:18:16.248Z,9.80
2023-03-05T16:20:44.182Z,9.50
2023-03-05T16:23:11.840Z,8.60
2023-03-05T16:25:39.870Z,8.70
2023-03-05T16:28:07.729Z,9.10
2023-03-05T16:30:35.597Z,8.80
2023-03-05T16:33:03.987Z,10.20
2023-03-05T16:35:32.873Z,12.30
2023-03-05T16:38:00.840Z,14.10
2023-03-05T16:40:38.825Z,11.70
2023-03-05T16:43:16.465Z,11.20
2023-03-05T16:45:44.306Z,13.70
2023-03-05T16:48:12.037Z,18.30
2023-03-05T16:50:40.028Z,15.30
2023-03-05T16:53:07.902Z,17.20
2023-03-05T16:55:37.815Z,20.50
2023-03-05T16:58:05.938Z,14.70
2023-03-05T17:00:34.140Z,14.10
2023-03-05T17:03:02.007Z,10.60
2023-03-05T17:05:30.085Z,7.80
2023-03-05T17:07:58.252Z,6.40
2023-03-05T17:10:26.152Z,5.70
2023-03-05T17:12:54.502Z,7.30
2023-03-05T17:15:23.803Z,6.70
2023-03-05T17:17:51.768Z,8.30
2023-03-05T17:20:20.146Z,8.00
2023-03-05T17:22:48.121Z,9.10
2023-03-05T17:25:16.085Z,8.40
2023-03-05T17:27:44.125Z,9.60
2023-03-05T17:30:12.946Z,10.40
2023-03-05T17:32:41.527Z,9.30
2023-03-05T17:35:27.838Z,9.40
2023-03-05T17:37:56.035Z,10.50
2023-03-05T17:40:25.261Z,11.30
2023-03-05T17:42:53.067Z,10.20
2023-03-05T17:45:21.136Z,8.90
2023-03-05T17:47:48.998Z,10.80
2023-03-05T17:50:17.109Z,11.20
2023-03-05T17:52:45.648Z,11.50
2023-03-05T17:55:17.218Z,11.30
2023-03-05T17:57:47.632Z,11.60
2023-03-05T18:00:23.560Z,9.90
2023-03-05T18:02:52.990Z,10.10
2023-03-05T18:05:24.196Z,10.70
2023-03-05T18:07:52.694Z,10.20
2023-03-05T18:10:23.791Z,8.10
2023-03-05T18:12:52.519Z,8.10
2023-03-05T18:15:22.489Z,9.60
2023-03-05T18:17:51.555Z,12.10
2023-03-05T18:20:34.370Z,10.40
2023-03-05T18:23:05.119Z,8.60
2023-03-05T18:25:34.128Z,8.60
2023-03-05T18:28:11.855Z,8.90
2023-03-05T18:30:41.791Z,10.10
2023-03-05T18:33:25.316Z,9.30
2023-03-05T18:35:53.751Z,10.20
2023-03-05T18:38:26.119Z,12.00
2023-03-05T18:40:56.494Z,9.80
2023-03-05T18:43:25.139Z,9.50
2023-03-05T18:45:55.963Z,8.90
2023-03-05T18:48:24.164Z,8.80
2023-03-05T18:50:53.877Z,8.30
2023-03-05T18:53:22.733Z,9.70
2023-03-05T18:55:52.806Z,9.40
2023-03-05T18:58:20.662Z,9.50
2023-03-05T19:00:48.801Z,9.00
2023-03-05T19:03:19.339Z,8.60
2023-03-05T19:05:50.214Z,10.70
2023-03-05T19:08:19.427Z,8.60
2023-03-05T19:10:47.717Z,9.20
2023-03-05T19:13:40.339Z,10.00
2023-03-05T19:16:10.322Z,8.80
2023-03-05T19:18:43.898Z,10.10
2023-03-05T19:21:11.768Z,9.40
2023-03-05T19:23:39.845Z,8.40
2023-03-05T19:26:07.650Z,8.90
2023-03-05T19:28:35.361Z,10.40
2023-03-05T19:31:03.100Z,9.70
2023-03-05T19:33:30.922Z,8.60
2023-03-05T19:35:59.063Z,8.70
2023-03-05T19:38:29.387Z,10.00
2023-03-05T19:40:57.058Z,9.80
2023-03-05T19:43:24.800Z,11.00
2023-03-05T19:45:52.986Z,9.80
2023-03-05T19:48:20.668Z,11.00
2023-03-05T19:50:48.514Z,10.70
2023-03-05T19:53:16.279Z,11.20
2023-03-05T19:55:43.971Z,11.50
2023-03-05T19:58:11.690Z,9.70
2023-03-05T20:00:39.504Z,6.70
2023-03-05T20:03:07.324Z,6.90
2023-03-05T20:05:35.388Z,6.80
2023-03-05T20:08:03.425Z,5.80
2023-03-05T20:10:31.252Z,6.70
2023-03-05T20:12:58.977Z,6.70
2023-03-05T20:15:29.279Z,6.40
2023-03-05T20:17:58.314Z,6.40
2023-03-05T20:20:26.109Z,6.50
2023-03-05T20:22:54.203Z,6.80
2023-03-05T20:25:24.654Z,8.70
2023-03-05T20:27:52.778Z,7.20
2023-03-05T20:30:20.774Z,7.50
2023-03-05T20:32:48.660Z,8.20
2023-03-05T20:35:18.838Z,8.00
2023-03-05T20:38:20.829Z,8.70
2023-03-05T20:40:50.476Z,7.80
2023-03-05T20:43:19.379Z,7.20
2023-03-05T20:45:48.058Z,8.90
2023-03-05T20:48:16.380Z,9.50
2023-03-05T20:50:46.661Z,10.40
2023-03-05T20:53:15.487Z,10.10
2023-03-05T20:55:43.603Z,8.70
2023-03-05T20:58:11.818Z,10.40
2023-03-05T21:00:41.338Z,11.80
2023-03-05T21:03:09.514Z,10.60
2023-03-05T21:05:37.940Z,10.20
2023-03-05T21:08:05.796Z,10.20
2023-03-05T21:10:33.795Z,9.40
2023-03-05T21:13:01.527Z,9.10
2023-03-05T21:15:30.932Z,8.80
2023-03-05T21:17:58.937Z,8.20
2023-03-05T21:20:29.871Z,7.90
2023-03-05T21:22:59.037Z,9.30
2023-03-05T21:25:32.395Z,9.60
2023-03-05T21:28:02.930Z,9.80
2023-03-05T21:30:38.456Z,8.60
2023-03-05T21:33:11.863Z,7.90
2023-03-05T21:35:40.764Z,8.60
2023-03-05T21:38:09.904Z,9.20
2023-03-05T21:40:43.659Z,8.50
2023-03-05T21:43:13.295Z,9.10
2023-03-05T21:45:42.134Z,8.50
2023-03-05T21:48:10.135Z,8.40
2023-03-05T21:50:41.750Z,9.70
2023-03-05T21:53:10.534Z,10.60
2023-03-05T21:55:58.578Z,14.10
2023-03-05T21:58:26.307Z,13.50
2023-03-05T22:00:54.027Z,13.60
2023-03-05T22:03:21.727Z,12.80
2023-03-05T22:05:49.373Z,12.50
2023-03-05T22:08:17.056Z,11.50
2023-03-05T22:10:44.726Z,10.10
2023-03-05T22:13:12.698Z,10.60
2023-03-05T22:15:48.058Z,11.70
2023-03-05T22:18:23.238Z,11.80
2023-03-05T22:20:52.581Z,11.90
2023-03-05T22:23:23.753Z,10.10
2023-03-05T22:26:05.434Z,8.60
2023-03-05T22:28:35.715Z,9.30
2023-03-05T22:31:03.562Z,9.70
2023-03-05T22:33:31.792Z,9.20
2023-03-05T22:35:59.873Z,7.10
2023-03-05T22:38:27.652Z,7.20
2023-03-05T22:40:55.501Z,8.00
2023-03-05T22:43:23.272Z,7.20
2023-03-05T22:45:51.054Z,7.10
2023-03-05T22:48:18.734Z,8.60
2023-03-05T22:50:46.680Z,8.00
2023-03-05T22:53:14.489Z,8.70
2023-03-05T22:55:43.020Z,9.60
2023-03-05T22:58:10.888Z,9.50
2023-03-05T23:00:38.673Z,9.40
2023-03-05T23:03:06.621Z,7.70
2023-03-05T23:05:37.699Z,6.90
2023-03-05T23:08:05.908Z,7.30
2023-03-05T23:10:34.393Z,7.20
2023-03-05T23:13:02.680Z,6.60
2023-03-05T23:15:34.469Z,8.30
2023-03-05T23:18:04.578Z,7.00
2023-03-05T23:20:36.854Z,7.60
2023-03-05T23:23:04.956Z,9.60
2023-03-05T23:25:36.480Z,9.40
2023-03-05T23:28:04.675Z,9.00
2023-03-05T23:30:37.260Z,7.80
2023-03-05T23:33:06.885Z,8.00
2023-03-05T23:35:38.843Z,7.30
2023-03-05T23:38:13.943Z,7.10
2023-03-05T23:40:46.910Z,7.40
2023-03-05T23:43:16.375Z,6.80
2023-03-05T23:45:48.164Z,6.90
2023-03-05T23:48:17.940Z,7.10
2023-03-05T23:50:47.936Z,7.90
2023-03-05T23:53:31.311Z,8.00
2023-03-05T23:55:59.143Z,7.60
2023-03-05T23:58:27.141Z,8.90
